Time;durP1;ratioP1;P1;durP2;ratioP2;P2;SDS_P1;SDS_P2;PMS_P1;PMS_P2;Temp;Humidity;BMP_temperature;BMP_pressure;BME280_temperature;BME280_humidity;BME280_pressure;Samples;Min_cycle;Max_cycle;Signal;HPM_P1;HPM_P2
2023/01/07 00:00:59;;;;;;;3.47;2.00;;;;;;;;;;4983787;28;92205;-80
2023/01/07 00:03:27;;;;;;;5.03;1.77;;;;;;;;;;4964332;28;94134;-75
2023/01/07 00:05:54;;;;;;;;;;;;;;;;;;4975090;28;92137;-78
2023/01/07 00:08:21;;;;;;;6.43;3.60;;;;;;;;;;4980804;28;92346;-75
2023/01/07 00:10:48;;;;;;;6.20;3.60;;;;;;;;;;4968005;28;92655;-75
2023/01/07 00:13:15;;;;;;;6.75;3.40;;;;;;;;;;4975129;28;91802;-74
2023/01/07 00:15:42;;;;;;;7.68;3.70;;;;;;;;;;4981455;28;92708;-71
2023/01/07 00:18:09;;;;;;;6.05;3.47;;;;;;;;;;4968209;28;92802;-76
2023/01/07 00:20:36;;;;;;;;;;;;;;;;;;4965962;28;94739;-78
2023/01/07 00:23:03;;;;;;;6.05;3.28;;;;;;;;;;4984937;28;111991;-75
2023/01/07 00:25:30;;;;;;;6.55;3.65;;;;;;;;;;4983635;28;93088;-76
2023/01/07 00:27:57;;;;;;;6.43;3.60;;;;;;;;;;4971896;28;92872;-76
2023/01/07 00:30:24;;;;;;;8.27;3.70;;;;;;;;;;4982331;28;92414;-76
2023/01/07 00:33:03;;;;;;;6.03;2.88;;;;;;;;;;4983110;28;93863;-77
2023/01/07 00:35:31;;;;;;;6.90;3.72;;;;;;;;;;4981730;28;92521;-74
2023/01/07 00:37:58;;;;;;;6.47;3.22;;;;;;;;;;4986719;28;93640;-79
2023/01/07 00:40:25;;;;;;;6.40;3.55;;;;;;;;;;4980735;28;92364;-84
2023/01/07 00:42:53;;;;;;;6.88;3.25;;;;;;;;;;4965942;28;93844;-76
2023/01/07 00:45:24;;;;;;;6.65;3.38;;;;;;;;;;4988166;28;97348;-78
2023/01/07 00:47:53;;;;;;;7.03;3.10;;;;;;;;;;4972792;28;92059;-81
2023/01/07 00:50:21;;;;;;;6.28;3.20;;;;;;;;;;4976858;28;92269;-76
2023/01/07 00:52:54;;;;;;;6.28;3.35;;;;;;;;;;4963731;28;92487;-78
2023/01/07 00:55:25;;;;;;;6.28;2.85;;;;;;;;;;4969955;28;92333;-75
2023/01/07 00:57:53;;;;;;;7.80;2.90;;;;;;;;;;4975493;28;95879;-77
2023/01/07 01:00:20;;;;;;;;;;;;;;;;;;4974339;28;92461;-72
2023/01/07 01:02:51;;;;;;;6.50;2.88;;;;;;;;;;4972129;28;94660;-77
2023/01/07 01:05:19;;;;;;;7.55;3.30;;;;;;;;;;4962883;28;94349;-76
2023/01/07 01:11:50;;;;;;;7.70;2.97;;;;;;;;;;4954029;28;94742;-75
2023/01/07 01:14:24;;;;;;;5.90;2.45;;;;;;;;;;4959354;28;94899;-74
2023/01/07 01:16:51;;;;;;;8.27;3.33;;;;;;;;;;4964863;28;92205;-73
2023/01/07 01:19:19;;;;;;;7.57;3.10;;;;;;;;;;4964835;28;92780;-75
2023/01/07 01:21:47;;;;;;;7.60;3.60;;;;;;;;;;4969333;28;92819;-72
2023/01/07 01:24:14;;;;;;;7.55;3.03;;;;;;;;;;4977592;28;92267;-74
2023/01/07 01:26:59;;;;;;;7.22;2.88;;;;;;;;;;4962790;28;93273;-72
2023/01/07 01:29:26;;;;;;;9.73;3.50;;;;;;;;;;4962975;28;91297;-73
2023/01/07 01:31:53;;;;;;;7.18;3.17;;;;;;;;;;4964634;28;92306;-75
2023/01/07 01:34:21;;;;;;;9.77;4.32;;;;;;;;;;4976540;28;94913;-80
2023/01/07 01:36:56;;;;;;;8.38;3.53;;;;;;;;;;4968457;28;96201;-78
2023/01/07 01:39:24;;;;;;;6.65;3.20;;;;;;;;;;4964553;28;96419;-74
2023/01/07 01:41:54;;;;;;;8.68;3.53;;;;;;;;;;4961222;28;92687;-81
2023/01/07 01:45:00;;;;;;;8.68;3.90;;;;;;;;;;4962219;28;92381;-85
2023/01/07 01:47:49;;;;;;;8.95;3.60;;;;;;;;;;4962665;28;95318;-68
2023/01/07 01:50:33;;;;;;;8.38;3.47;;;;;;;;;;4961383;28;92932;-63
2023/01/07 01:53:07;;;;;;;13.18;3.17;;;;;;;;;;4980308;28;94747;-63
2023/01/07 01:55:43;;;;;;;9.32;3.65;;;;;;;;;;4963862;28;94209;-65
2023/01/07 01:58:13;;;;;;;10.40;3.15;;;;;;;;;;4968774;28;92360;-65
2023/01/07 02:00:40;;;;;;;7.55;3.00;;;;;;;;;;4957481;28;94358;-64
2023/01/07 02:03:10;;;;;;;7.13;3.65;;;;;;;;;;4957723;28;95365;-65
2023/01/07 02:05:37;;;;;;;8.67;3.60;;;;;;;;;;4937486;28;1136354;-64
2023/01/07 02:08:06;;;;;;;8.38;4.20;;;;;;;;;;4964969;28;93601;-64
2023/01/07 02:10:34;;;;;;;8.98;3.72;;;;;;;;;;4971116;28;92545;-65
2023/01/07 02:13:03;;;;;;;9.52;3.50;;;;;;;;;;4966478;28;94129;-65
2023/01/07 02:15:49;;;;;;;8.82;3.67;;;;;;;;;;4964848;28;93398;-63
2023/01/07 02:18:15;;;;;;;7.43;3.15;;;;;;;;;;4962602;28;92197;-66
2023/01/07 02:20:50;;;;;;;7.88;3.53;;;;;;;;;;4964074;28;91730;-65
2023/01/07 02:23:37;;;;;;;7.88;3.50;;;;;;;;;;4960782;28;95417;-63
2023/01/07 02:26:15;;;;;;;8.63;3.20;;;;;;;;;;4971087;28;92674;-64
2023/01/07 02:28:48;;;;;;;7.57;3.58;;;;;;;;;;4984216;28;94493;-65
2023/01/07 02:31:27;;;;;;;8.73;3.38;;;;;;;;;;4966950;28;93137;-64
2023/01/07 02:33:53;;;;;;;7.68;3.70;;;;;;;;;;4968158;28;92723;-65
2023/01/07 02:36:35;;;;;;;8.98;3.72;;;;;;;;;;4976712;28;95129;-65
2023/01/07 02:39:10;;;;;;;11.07;3.35;;;;;;;;;;4962110;28;92404;-65
2023/01/07 02:41:40;;;;;;;8.63;3.50;;;;;;;;;;4970640;28;94470;-64
2023/01/07 02:44:13;;;;;;;8.63;3.90;;;;;;;;;;4970504;28;92726;-65
2023/01/07 02:46:50;;;;;;;9.57;3.42;;;;;;;;;;4960637;28;91309;-65
2023/01/07 02:49:17;;;;;;;9.02;3.25;;;;;;;;;;4965624;28;94809;-64
2023/01/07 02:51:45;;;;;;;7.53;3.30;;;;;;;;;;4978370;28;92576;-66
2023/01/07 02:54:16;;;;;;;7.40;3.58;;;;;;;;;;4962516;28;95043;-63
2023/01/07 02:56:51;;;;;;;9.00;3.08;;;;;;;;;;4962577;28;93034;-64
2023/01/07 02:59:32;;;;;;;9.25;4.00;;;;;;;;;;4964457;28;92300;-65
2023/01/07 03:02:08;;;;;;;7.13;3.17;;;;;;;;;;4973649;28;93221;-64
2023/01/07 03:04:46;;;;;;;7.68;3.47;;;;;;;;;;4959981;28;94765;-65
2023/01/07 03:07:27;;;;;;;8.07;3.13;;;;;;;;;;4962075;28;93363;-64
2023/01/07 03:09:55;;;;;;;8.23;3.78;;;;;;;;;;4966636;28;94731;-64
2023/01/07 03:12:22;;;;;;;6.45;2.95;;;;;;;;;;4965606;28;92941;-64
2023/01/07 03:14:50;;;;;;;6.80;3.22;;;;;;;;;;4977334;28;92276;-64
2023/01/07 03:17:22;;;;;;;7.15;2.95;;;;;;;;;;4964851;28;93982;-64
2023/01/07 03:19:51;;;;;;;7.20;3.20;;;;;;;;;;4967325;28;95022;-65
2023/01/07 03:22:18;;;;;;;10.98;3.17;;;;;;;;;;4981165;28;94715;-64
2023/01/07 03:24:47;;;;;;;7.93;2.75;;;;;;;;;;4980780;28;92468;-64
2023/01/07 03:27:13;;;;;;;7.72;3.50;;;;;;;;;;4979878;28;92202;-66
2023/01/07 03:29:40;;;;;;;7.60;2.90;;;;;;;;;;4988267;28;94216;-64
2023/01/07 03:32:12;;;;;;;7.03;3.30;;;;;;;;;;4996029;28;94969;-65
2023/01/07 03:34:39;;;;;;;6.22;2.95;;;;;;;;;;4967962;28;92104;-64
2023/01/07 03:37:09;;;;;;;8.00;3.08;;;;;;;;;;4995962;28;94794;-64
2023/01/07 03:39:37;;;;;;;8.18;3.15;;;;;;;;;;4992510;28;92330;-64
2023/01/07 03:44:50;;;;;;;6.53;2.90;;;;;;;;;;4974282;28;97925;-63
2023/01/07 03:47:18;;;;;;;8.23;2.90;;;;;;;;;;4979955;28;93373;-64
2023/01/07 03:49:44;;;;;;;7.32;2.95;;;;;;;;;;4981051;28;92273;-65
2023/01/07 03:52:11;;;;;;;7.28;2.90;;;;;;;;;;4995965;28;92639;-65
2023/01/07 03:54:37;;;;;;;7.55;3.10;;;;;;;;;;4980681;28;92214;-64
2023/01/07 03:57:03;;;;;;;7.15;2.90;;;;;;;;;;4980990;28;92856;-65
2023/01/07 03:59:30;;;;;;;7.57;2.75;;;;;;;;;;4983786;28;93010;-64
2023/01/07 04:01:57;;;;;;;7.38;2.97;;;;;;;;;;4979913;28;95090;-65
2023/01/07 04:04:24;;;;;;;7.90;2.78;;;;;;;;;;4980824;28;93177;-65
2023/01/07 04:06:50;;;;;;;6.57;2.70;;;;;;;;;;4979019;28;92682;-64
2023/01/07 04:09:20;;;;;;;8.18;3.35;;;;;;;;;;4979501;28;94785;-66
2023/01/07 04:11:47;;;;;;;7.38;3.22;;;;;;;;;;4978247;28;92354;-64
2023/01/07 04:14:14;;;;;;;5.95;3.08;;;;;;;;;;4990083;28;92140;-68
2023/01/07 04:16:41;;;;;;;6.22;3.38;;;;;;;;;;4975096;28;94652;-64
2023/01/07 04:19:08;;;;;;;8.30;3.17;;;;;;;;;;4996023;28;92552;-65
2023/01/07 04:21:34;;;;;;;8.05;2.92;;;;;;;;;;4983923;28;92437;-64
2023/01/07 04:24:03;;;;;;;5.40;2.60;;;;;;;;;;4978786;28;92921;-64
2023/01/07 04:26:31;;;;;;;8.23;3.42;;;;;;;;;;4980975;28;91992;-64
2023/01/07 04:28:57;;;;;;;7.63;2.83;;;;;;;;;;4980014;28;92158;-64
2023/01/07 04:31:25;;;;;;;8.45;2.95;;;;;;;;;;4978898;28;92731;-65
2023/01/07 04:33:52;;;;;;;5.65;3.00;;;;;;;;;;4977306;28;94813;-64
2023/01/07 04:36:18;;;;;;;6.43;3.00;;;;;;;;;;4981580;28;94920;-63
2023/01/07 04:38:46;;;;;;;7.40;2.90;;;;;;;;;;4998447;28;92661;-65
2023/01/07 04:41:13;;;;;;;7.05;2.70;;;;;;;;;;4982677;28;92408;-65
2023/01/07 04:43:39;;;;;;;6.38;2.60;;;;;;;;;;4986790;28;92646;-65
2023/01/07 04:46:06;;;;;;;6.70;2.80;;;;;;;;;;4982240;28;92139;-65
2023/01/07 04:48:34;;;;;;;8.32;3.20;;;;;;;;;;4982080;28;92657;-64
2023/01/07 04:51:01;;;;;;;8.07;2.75;;;;;;;;;;4981420;28;91597;-64
2023/01/07 04:53:28;;;;;;;7.03;2.60;;;;;;;;;;4967964;28;92103;-64
2023/01/07 04:55:54;;;;;;;6.72;2.75;;;;;;;;;;4982405;28;94857;-64
2023/01/07 04:58:22;;;;;;;7.25;2.72;;;;;;;;;;4981190;28;95110;-64
2023/01/07 05:00:53;;;;;;;7.22;2.60;;;;;;;;;;4986214;28;92410;-63
2023/01/07 05:03:20;;;;;;;6.38;2.78;;;;;;;;;;4981684;28;92737;-64
2023/01/07 05:05:47;;;;;;;6.65;2.80;;;;;;;;;;4984400;28;92794;-63
2023/01/07 05:08:14;;;;;;;6.85;2.60;;;;;;;;;;4981597;28;92661;-65
2023/01/07 05:10:41;;;;;;;7.38;2.80;;;;;;;;;;4981245;28;94754;-64
2023/01/07 05:13:13;;;;;;;7.07;2.83;;;;;;;;;;4981662;28;92546;-64
2023/01/07 05:15:39;;;;;;;6.97;2.75;;;;;;;;;;4983675;28;92332;-65
2023/01/07 05:18:06;;;;;;;6.65;2.60;;;;;;;;;;4981448;28;93113;-65
2023/01/07 05:20:32;;;;;;;6.70;2.78;;;;;;;;;;4984043;28;92555;-65
2023/01/07 05:22:59;;;;;;;7.88;2.40;;;;;;;;;;4993863;28;95327;-65
2023/01/07 05:25:25;;;;;;;6.97;2.92;;;;;;;;;;5001156;28;95262;-62
2023/01/07 05:27:52;;;;;;;7.50;2.63;;;;;;;;;;4981304;28;93449;-64
2023/01/07 05:30:21;;;;;;;6.35;2.70;;;;;;;;;;4980820;28;93098;-64
2023/01/07 05:32:48;;;;;;;6.70;2.65;;;;;;;;;;4981134;28;92346;-64
2023/01/07 05:35:15;;;;;;;6.45;2.58;;;;;;;;;;4982196;28;92191;-64
2023/01/07 05:37:41;;;;;;;8.00;3.00;;;;;;;;;;4980987;28;95665;-64
2023/01/07 05:40:08;;;;;;;6.53;2.40;;;;;;;;;;4998030;28;91473;-64
2023/01/07 05:42:34;;;;;;;7.55;3.00;;;;;;;;;;4997751;28;92331;-64
2023/01/07 05:45:01;;;;;;;6.95;2.80;;;;;;;;;;4980678;28;95448;-64
2023/01/07 05:47:27;;;;;;;5.70;2.70;;;;;;;;;;4982959;28;94803;-65
2023/01/07 05:49:54;;;;;;;4.35;2.35;;;;;;;;;;4981959;28;92971;-64
2023/01/07 05:52:20;;;;;;;6.25;2.55;;;;;;;;;;4982282;28;92188;-64
2023/01/07 05:54:47;;;;;;;5.80;2.85;;;;;;;;;;4982208;28;92496;-64
2023/01/07 05:57:13;;;;;;;6.10;2.55;;;;;;;;;;4981985;28;92858;-63
2023/01/07 05:59:39;;;;;;;7.32;2.70;;;;;;;;;;4981619;28;92101;-65
2023/01/07 06:02:06;;;;;;;5.82;2.60;;;;;;;;;;4982268;28;92341;-65
2023/01/07 06:04:33;;;;;;;7.97;2.67;;;;;;;;;;4982157;28;92394;-66
2023/01/07 06:07:00;;;;;;;6.50;2.45;;;;;;;;;;4982468;28;92125;-65
2023/01/07 06:09:28;;;;;;;5.00;2.13;;;;;;;;;;4984787;28;92579;-64
2023/01/07 06:11:56;;;;;;;5.95;2.40;;;;;;;;;;4979189;28;94914;-64
2023/01/07 06:14:22;;;;;;;5.15;2.25;;;;;;;;;;4981949;28;95786;-64
2023/01/07 06:16:49;;;;;;;6.13;2.45;;;;;;;;;;4982192;28;93418;-66
2023/01/07 06:19:15;;;;;;;5.38;2.28;;;;;;;;;;4982051;28;92849;-64
2023/01/07 06:21:42;;;;;;;6.57;2.40;;;;;;;;;;4981862;28;92514;-66
2023/01/07 06:24:09;;;;;;;6.13;2.33;;;;;;;;;;4981910;28;92865;-66
2023/01/07 06:26:35;;;;;;;6.78;2.42;;;;;;;;;;4981717;28;92125;-65
2023/01/07 06:29:01;;;;;;;6.35;2.50;;;;;;;;;;4982327;28;92239;-64
2023/01/07 06:31:28;;;;;;;5.82;2.30;;;;;;;;;;4999187;28;93104;-64
2023/01/07 06:33:54;;;;;;;5.35;2.30;;;;;;;;;;4984883;28;93055;-63
2023/01/07 06:36:21;;;;;;;5.85;2.30;;;;;;;;;;4978623;28;95668;-65
2023/01/07 06:38:47;;;;;;;6.53;2.50;;;;;;;;;;4981629;28;92476;-63
2023/01/07 06:41:13;;;;;;;5.75;2.25;;;;;;;;;;4981936;28;93034;-64
2023/01/07 06:43:40;;;;;;;5.55;2.28;;;;;;;;;;4982088;28;93343;-66
2023/01/07 06:46:06;;;;;;;5.53;2.50;;;;;;;;;;4981397;28;92348;-64
2023/01/07 06:48:33;;;;;;;7.72;2.28;;;;;;;;;;4981660;28;92383;-66
2023/01/07 06:50:59;;;;;;;3.75;1.92;;;;;;;;;;4981389;28;92987;-64
2023/01/07 06:53:26;;;;;;;4.75;2.28;;;;;;;;;;4985687;28;91710;-65
2023/01/07 06:55:52;;;;;;;5.85;2.17;;;;;;;;;;4980955;28;93494;-64
2023/01/07 06:58:18;;;;;;;5.00;2.13;;;;;;;;;;4981058;28;92590;-64
2023/01/07 07:00:45;;;;;;;7.57;2.40;;;;;;;;;;4979657;28;94635;-63
2023/01/07 07:03:11;;;;;;;5.15;1.90;;;;;;;;;;4981182;28;92311;-63
2023/01/07 07:05:38;;;;;;;5.32;2.28;;;;;;;;;;4980938;28;92456;-64
2023/01/07 07:08:05;;;;;;;5.53;2.10;;;;;;;;;;4981517;28;92779;-64
2023/01/07 07:10:31;;;;;;;4.88;2.10;;;;;;;;;;4980910;28;93295;-64
2023/01/07 07:12:58;;;;;;;4.60;2.00;;;;;;;;;;4981390;28;92232;-65
2023/01/07 07:15:24;;;;;;;6.28;2.20;;;;;;;;;;4981841;28;92449;-64
2023/01/07 07:17:50;;;;;;;4.88;2.00;;;;;;;;;;4981949;28;91673;-64
2023/01/07 07:20:17;;;;;;;5.70;1.88;;;;;;;;;;4981134;28;92627;-65
2023/01/07 07:22:46;;;;;;;5.50;2.10;;;;;;;;;;4981157;28;92922;-65
2023/01/07 07:25:13;;;;;;;7.38;2.00;;;;;;;;;;4979503;28;95315;-64
2023/01/07 07:27:42;;;;;;;5.82;2.00;;;;;;;;;;4981025;28;94829;-64
2023/01/07 07:30:09;;;;;;;4.07;2.00;;;;;;;;;;4980514;28;94368;-63
2023/01/07 07:32:35;;;;;;;4.15;1.90;;;;;;;;;;4989941;28;92640;-65
2023/01/07 07:35:02;;;;;;;3.78;1.92;;;;;;;;;;4986319;28;93337;-65
2023/01/07 07:37:28;;;;;;;4.93;1.90;;;;;;;;;;4962870;28;92861;-64
2023/01/07 07:39:55;;;;;;;4.50;1.60;;;;;;;;;;4963875;28;92771;-64
2023/01/07 07:42:21;;;;;;;5.00;1.90;;;;;;;;;;4962950;28;92175;-64
2023/01/07 07:44:49;;;;;;;3.15;1.63;;;;;;;;;;4965165;28;92163;-64
2023/01/07 07:47:15;;;;;;;3.92;1.70;;;;;;;;;;4965313;28;92380;-63
2023/01/07 07:49:42;;;;;;;3.13;1.70;;;;;;;;;;4959383;28;95540;-63
2023/01/07 07:52:08;;;;;;;4.70;1.70;;;;;;;;;;4962103;28;92285;-64
2023/01/07 07:54:35;;;;;;;3.90;1.25;;;;;;;;;;4960178;28;92818;-64
2023/01/07 07:57:02;;;;;;;4.05;1.45;;;;;;;;;;4964473;28;92788;-64
2023/01/07 07:59:29;;;;;;;6.45;1.58;;;;;;;;;;4973887;28;92401;-64
2023/01/07 08:01:55;;;;;;;2.25;1.30;;;;;;;;;;4979799;28;93234;-63
2023/01/07 08:04:22;;;;;;;4.35;1.80;;;;;;;;;;4980039;28;92598;-64
2023/01/07 08:06:48;;;;;;;4.47;1.60;;;;;;;;;;4979981;28;92793;-64
2023/01/07 08:09:14;;;;;;;3.40;1.30;;;;;;;;;;4980062;28;93187;-63
2023/01/07 08:11:41;;;;;;;3.92;1.40;;;;;;;;;;4972353;28;92139;-64
2023/01/07 08:14:08;;;;;;;5.47;1.67;;;;;;;;;;4978308;28;94723;-64
2023/01/07 08:16:35;;;;;;;5.25;1.70;;;;;;;;;;4983081;28;92791;-64
2023/01/07 08:19:01;;;;;;;2.50;1.20;;;;;;;;;;4999389;28;92276;-64
2023/01/07 08:21:28;;;;;;;3.58;1.67;;;;;;;;;;4983178;28;92712;-64
2023/01/07 08:23:54;;;;;;;3.75;1.60;;;;;;;;;;4981937;28;92604;-64
2023/01/07 08:26:20;;;;;;;3.15;1.27;;;;;;;;;;4982195;28;92497;-66
2023/01/07 08:28:47;;;;;;;2.58;1.30;;;;;;;;;;4981221;28;93161;-65
2023/01/07 08:31:13;;;;;;;3.22;1.48;;;;;;;;;;4982285;28;91453;-63
2023/01/07 08:33:40;;;;;;;5.65;1.65;;;;;;;;;;4984744;28;92274;-64
2023/01/07 08:36:07;;;;;;;4.30;1.42;;;;;;;;;;4980358;28;92854;-64
2023/01/07 08:38:53;;;;;;;5.13;1.55;;;;;;;;;;4980986;28;94730;-64
2023/01/07 08:41:21;;;;;;;3.17;1.40;;;;;;;;;;4986051;28;95421;-65
2023/01/07 08:43:47;;;;;;;;;;;;;;;;;;4983309;28;92183;-64
2023/01/07 08:46:14;;;;;;;4.13;1.30;;;;;;;;;;4969041;28;117312;-65
2023/01/07 08:48:40;;;;;;;3.88;1.30;;;;;;;;;;4965862;28;94236;-66
2023/01/07 08:51:07;;;;;;;4.07;1.45;;;;;;;;;;4960892;28;92450;-66
2023/01/07 08:53:33;;;;;;;2.67;1.30;;;;;;;;;;4963410;28;92931;-67
2023/01/07 08:56:00;;;;;;;3.15;1.30;;;;;;;;;;4963517;28;91986;-66
2023/01/07 08:58:26;;;;;;;3.72;1.40;;;;;;;;;;4970667;28;92272;-66
2023/01/07 09:00:53;;;;;;;3.30;1.38;;;;;;;;;;4982544;28;92704;-66
2023/01/07 09:03:19;;;;;;;3.47;1.75;;;;;;;;;;4984086;28;95282;-66
2023/01/07 09:05:46;;;;;;;3.17;1.30;;;;;;;;;;4977148;28;95217;-66
2023/01/07 09:08:12;;;;;;;4.18;1.38;;;;;;;;;;4972955;28;93822;-66
2023/01/07 09:10:38;;;;;;;3.25;1.20;;;;;;;;;;4962275;28;92467;-67
2023/01/07 09:13:05;;;;;;;5.88;1.48;;;;;;;;;;4981789;28;92469;-67
2023/01/07 09:15:31;;;;;;;3.67;1.20;;;;;;;;;;4981899;28;92402;-67
2023/01/07 09:17:58;;;;;;;3.13;1.23;;;;;;;;;;4981745;28;92352;-66
2023/01/07 09:20:24;;;;;;;2.45;1.33;;;;;;;;;;4981936;28;92509;-67
2023/01/07 09:22:50;;;;;;;2.58;1.30;;;;;;;;;;4981819;28;92839;-67
2023/01/07 09:25:17;;;;;;;3.72;1.20;;;;;;;;;;4984837;28;92345;-65
2023/01/07 09:27:44;;;;;;;3.72;1.50;;;;;;;;;;4979735;28;95985;-65
2023/01/07 09:30:11;;;;;;;3.95;1.30;;;;;;;;;;4963668;28;92552;-66
2023/01/07 09:32:38;;;;;;;3.90;1.30;;;;;;;;;;4982976;28;92947;-66
2023/01/07 09:35:05;;;;;;;2.92;1.10;;;;;;;;;;4962011;28;93341;-66
2023/01/07 09:37:31;;;;;;;3.05;1.10;;;;;;;;;;4962055;28;92803;-66
2023/01/07 09:39:59;;;;;;;2.53;1.25;;;;;;;;;;4961543;28;92986;-66
2023/01/07 09:42:41;;;;;;;4.90;1.40;;;;;;;;;;4961505;28;92669;-68
2023/01/07 09:45:09;;;;;;;2.67;1.30;;;;;;;;;;4965153;28;92075;-68
2023/01/07 09:47:37;;;;;;;2.50;1.30;;;;;;;;;;4978467;28;92601;-65
2023/01/07 09:50:08;;;;;;;2.25;1.10;;;;;;;;;;4980914;28;92350;-66
2023/01/07 09:52:36;;;;;;;2.67;1.27;;;;;;;;;;4979657;28;94350;-65
2023/01/07 09:55:26;;;;;;;3.38;1.20;;;;;;;;;;4980948;28;92780;-67
2023/01/07 09:57:52;;;;;;;5.22;1.02;;;;;;;;;;4966190;28;92136;-66
2023/01/07 10:00:23;;;;;;;8.07;1.35;;;;;;;;;;4967617;28;92454;-64
2023/01/07 10:02:49;;;;;;;3.50;1.08;;;;;;;;;;4978069;28;93741;-64
2023/01/07 10:05:24;;;;;;;2.25;1.10;;;;;;;;;;4981393;28;92668;-65
2023/01/07 10:07:53;;;;;;;2.60;0.98;;;;;;;;;;4984545;28;92211;-64
2023/01/07 10:10:43;;;;;;;2.22;0.95;;;;;;;;;;4982280;28;91501;-64
2023/01/07 10:13:09;;;;;;;2.45;1.10;;;;;;;;;;4981497;28;92274;-65
2023/01/07 10:15:45;;;;;;;2.53;1.00;;;;;;;;;;4981350;28;93796;-64
2023/01/07 10:18:32;;;;;;;3.15;0.90;;;;;;;;;;4979955;28;94456;-63
2023/01/07 10:21:05;;;;;;;2.13;1.05;;;;;;;;;;4981165;28;96141;-67
2023/01/07 10:23:35;;;;;;;3.50;0.90;;;;;;;;;;4981412;28;92696;-64
2023/01/07 10:26:02;;;;;;;3.55;1.20;;;;;;;;;;4981245;28;92422;-65
2023/01/07 10:28:41;;;;;;;2.50;1.20;;;;;;;;;;4979824;28;93561;-64
2023/01/07 10:31:14;;;;;;;2.28;0.82;;;;;;;;;;4971907;28;93255;-66
2023/01/07 10:33:40;;;;;;;1.00;0.85;;;;;;;;;;4980696;28;92285;-65
2023/01/07 10:36:12;;;;;;;1.35;1.10;;;;;;;;;;4980414;28;91847;-65
2023/01/07 10:38:41;;;;;;;2.00;1.13;;;;;;;;;;4981468;28;92450;-64
2023/01/07 10:41:23;;;;;;;1.70;0.93;;;;;;;;;;4981041;28;92312;-63
2023/01/07 10:44:08;;;;;;;3.25;1.00;;;;;;;;;;4979344;28;96038;-64
2023/01/07 10:46:53;;;;;;;1.73;1.10;;;;;;;;;;4981140;28;92198;-65
2023/01/07 10:49:42;;;;;;;1.13;0.90;;;;;;;;;;4981442;28;92463;-64
2023/01/07 10:52:18;;;;;;;2.05;0.95;;;;;;;;;;4980889;28;92712;-64
2023/01/07 10:55:02;;;;;;;2.03;1.00;;;;;;;;;;4970602;28;92057;-63
2023/01/07 10:57:29;;;;;;;1.40;0.93;;;;;;;;;;4980930;28;92777;-66
2023/01/07 10:59:57;;;;;;;0.90;0.80;;;;;;;;;;4980855;28;92432;-65
2023/01/07 11:02:27;;;;;;;0.90;0.80;;;;;;;;;;4981864;28;93420;-63
2023/01/07 11:04:54;;;;;;;5.07;1.02;;;;;;;;;;4980256;28;93790;-64
2023/01/07 11:07:25;;;;;;;1.75;1.10;;;;;;;;;;4980912;28;92277;-64
2023/01/07 11:09:52;;;;;;;1.67;0.82;;;;;;;;;;4977987;28;95593;-65
2023/01/07 11:12:40;;;;;;;1.92;1.10;;;;;;;;;;4980395;28;93241;-65
2023/01/07 11:15:12;;;;;;;1.13;0.90;;;;;;;;;;4980900;28;93018;-66
2023/01/07 11:17:48;;;;;;;1.40;0.98;;;;;;;;;;4983672;28;92539;-64
2023/01/07 11:20:34;;;;;;;1.40;1.00;;;;;;;;;;4978360;28;92373;-65
2023/01/07 11:23:12;;;;;;;1.77;1.00;;;;;;;;;;4980763;28;92549;-63
2023/01/07 11:25:39;;;;;;;1.20;1.00;;;;;;;;;;4967001;28;92801;-64
2023/01/07 11:28:16;;;;;;;1.85;0.90;;;;;;;;;;4980838;28;91527;-64
2023/01/07 11:30:42;;;;;;;1.23;0.88;;;;;;;;;;4980621;28;92314;-64
2023/01/07 11:33:18;;;;;;;2.28;1.00;;;;;;;;;;4979951;28;93116;-64
2023/01/07 11:35:52;;;;;;;1.92;1.00;;;;;;;;;;4978348;28;95245;-64
2023/01/07 11:38:29;;;;;;;2.25;1.10;;;;;;;;;;4982963;28;94770;-63
2023/01/07 11:40:56;;;;;;;1.38;0.90;;;;;;;;;;4980109;28;93193;-64
2023/01/07 11:43:33;;;;;;;1.25;0.98;;;;;;;;;;4980297;28;92524;-63
2023/01/07 11:46:01;;;;;;;0.98;0.70;;;;;;;;;;4983843;28;93472;-65
2023/01/07 11:48:55;;;;;;;1.30;0.90;;;;;;;;;;4983738;28;92542;-65
2023/01/07 11:51:21;;;;;;;1.25;1.00;;;;;;;;;;4970027;28;92939;-64
2023/01/07 11:53:48;;;;;;;1.13;0.90;;;;;;;;;;4982723;28;92049;-64
2023/01/07 11:56:20;;;;;;;2.70;0.90;;;;;;;;;;4983575;28;92711;-65
2023/01/07 11:58:51;;;;;;;1.13;0.60;;;;;;;;;;4983739;28;92493;-65
2023/01/07 12:01:18;;;;;;;1.23;0.90;;;;;;;;;;4984762;28;95655;-64
2023/01/07 12:03:51;;;;;;;2.28;1.10;;;;;;;;;;4983620;28;94847;-64
2023/01/07 12:06:26;;;;;;;2.55;0.90;;;;;;;;;;4983251;28;92751;-64
2023/01/07 12:08:53;;;;;;;2.65;1.00;;;;;;;;;;4983391;28;92036;-64
2023/01/07 12:11:20;;;;;;;1.10;0.82;;;;;;;;;;4981711;28;93550;-64
2023/01/07 12:13:48;;;;;;;0.95;0.88;;;;;;;;;;4963598;28;93876;-64
2023/01/07 12:16:14;;;;;;;1.85;1.08;;;;;;;;;;4964277;28;92497;-64
2023/01/07 12:18:40;;;;;;;1.05;0.90;;;;;;;;;;4969623;28;92461;-65
2023/01/07 12:21:25;;;;;;;1.52;0.90;;;;;;;;;;4967023;28;92796;-65
2023/01/07 12:24:11;;;;;;;2.28;1.00;;;;;;;;;;4986159;28;92039;-63
2023/01/07 12:26:56;;;;;;;1.70;0.90;;;;;;;;;;4963106;28;94968;-64
2023/01/07 12:29:35;;;;;;;3.25;1.20;;;;;;;;;;4964169;28;92528;-64
2023/01/07 12:32:12;;;;;;;4.35;1.48;;;;;;;;;;4977560;28;92726;-65
2023/01/07 12:34:54;;;;;;;2.65;1.55;;;;;;;;;;4985386;28;92877;-64
2023/01/07 12:37:25;;;;;;;4.53;1.70;;;;;;;;;;4976443;28;92181;-65
2023/01/07 12:39:54;;;;;;;3.55;1.50;;;;;;;;;;4982862;28;93356;-64
2023/01/07 12:42:25;;;;;;;3.83;1.70;;;;;;;;;;4979116;28;92727;-64
2023/01/07 12:44:58;;;;;;;4.30;1.50;;;;;;;;;;4965197;28;92014;-65
2023/01/07 12:47:33;;;;;;;2.65;1.30;;;;;;;;;;4971920;28;92149;-64
2023/01/07 12:50:03;;;;;;;2.35;1.13;;;;;;;;;;4969416;28;92593;-64
2023/01/07 12:52:35;;;;;;;3.60;1.38;;;;;;;;;;4963600;28;95079;-64
2023/01/07 12:55:06;;;;;;;3.05;1.50;;;;;;;;;;4968236;28;92922;-65
2023/01/07 12:57:39;;;;;;;2.60;1.50;;;;;;;;;;4962966;28;92422;-64
2023/01/07 13:00:11;;;;;;;4.72;1.33;;;;;;;;;;4963684;28;92892;-66
2023/01/07 13:02:47;;;;;;;2.53;1.20;;;;;;;;;;4971699;28;93689;-65
2023/01/07 13:05:15;;;;;;;3.72;1.17;;;;;;;;;;4980487;28;92033;-65
2023/01/07 13:07:41;;;;;;;2.17;1.10;;;;;;;;;;4980704;28;92920;-64
2023/01/07 13:10:22;;;;;;;2.85;1.30;;;;;;;;;;4984884;28;92165;-65
2023/01/07 13:12:49;;;;;;;3.75;1.23;;;;;;;;;;4970084;28;92375;-65
2023/01/07 13:15:25;;;;;;;4.18;1.17;;;;;;;;;;4981022;28;92795;-65
2023/01/07 13:18:04;;;;;;;3.15;1.20;;;;;;;;;;4979490;28;94920;-66
2023/01/07 13:20:50;;;;;;;2.45;1.00;;;;;;;;;;4969235;28;94907;-65
2023/01/07 13:23:20;;;;;;;2.40;1.20;;;;;;;;;;4962364;28;92907;-64
2023/01/07 13:25:49;;;;;;;2.92;1.58;;;;;;;;;;4964117;28;92060;-65
2023/01/07 13:28:21;;;;;;;4.10;1.30;;;;;;;;;;4973143;28;92606;-64
2023/01/07 13:30:57;;;;;;;2.40;1.02;;;;;;;;;;4980392;28;92823;-65
2023/01/07 13:33:32;;;;;;;3.60;1.27;;;;;;;;;;4981964;28;92727;-65
2023/01/07 13:36:10;;;;;;;2.63;1.13;;;;;;;;;;4972742;28;92867;-65
2023/01/07 13:38:55;;;;;;;2.40;1.20;;;;;;;;;;4968396;28;92338;-65
2023/01/07 13:41:34;;;;;;;3.55;1.10;;;;;;;;;;4981985;28;92850;-64
2023/01/07 13:44:19;;;;;;;3.10;1.10;;;;;;;;;;4980155;28;95224;-66
2023/01/07 13:46:45;;;;;;;6.05;1.23;;;;;;;;;;4973536;28;92073;-65
2023/01/07 13:49:31;;;;;;;3.95;1.10;;;;;;;;;;4980756;28;92373;-64
2023/01/07 13:52:12;;;;;;;4.30;1.20;;;;;;;;;;4976123;28;93159;-65
2023/01/07 13:54:49;;;;;;;3.92;1.10;;;;;;;;;;4966900;28;92216;-66
2023/01/07 13:57:24;;;;;;;1.95;0.73;;;;;;;;;;4954094;28;93425;-65
2023/01/07 13:59:54;;;;;;;3.25;1.10;;;;;;;;;;4965126;28;93368;-65
2023/01/07 14:02:22;;;;;;;3.35;1.05;;;;;;;;;;4983275;28;91930;-66
2023/01/07 14:04:48;;;;;;;;;;;;;;;;;;4965735;28;93441;-65
2023/01/07 14:07:16;;;;;;;2.47;1.10;;;;;;;;;;4974234;28;92465;-66
2023/01/07 14:09:42;;;;;;;2.72;1.02;;;;;;;;;;4970190;28;94694;-65
2023/01/07 14:12:26;;;;;;;1.92;1.05;;;;;;;;;;4969625;28;92751;-64
2023/01/07 14:15:01;;;;;;;2.70;0.90;;;;;;;;;;4964063;28;92158;-66
2023/01/07 14:17:31;;;;;;;2.67;1.10;;;;;;;;;;4970289;28;93161;-67
2023/01/07 14:20:04;;;;;;;4.15;1.10;;;;;;;;;;4965272;28;92434;-66
2023/01/07 14:22:37;;;;;;;1.77;1.10;;;;;;;;;;4984979;28;92836;-65
2023/01/07 14:25:22;;;;;;;5.10;1.20;;;;;;;;;;4979213;28;93622;-66
2023/01/07 14:27:58;;;;;;;3.40;0.98;;;;;;;;;;4972818;28;91929;-65
2023/01/07 14:30:27;;;;;;;2.70;1.15;;;;;;;;;;4968670;28;92284;-64
2023/01/07 14:32:56;;;;;;;3.03;1.23;;;;;;;;;;4979175;28;92714;-65
2023/01/07 14:35:27;;;;;;;2.58;1.13;;;;;;;;;;4975656;28;94821;-66
2023/01/07 14:37:54;;;;;;;3.15;1.00;;;;;;;;;;4972984;28;94927;-65
2023/01/07 14:40:26;;;;;;;1.90;1.10;;;;;;;;;;4984306;28;92737;-65
2023/01/07 14:42:53;;;;;;;1.98;1.20;;;;;;;;;;4996845;28;92424;-64
2023/01/07 14:45:37;;;;;;;2.20;1.10;;;;;;;;;;4976117;28;93481;-65
2023/01/07 14:48:07;;;;;;;2.05;1.20;;;;;;;;;;4972482;28;92592;-65
2023/01/07 14:50:36;;;;;;;1.85;1.13;;;;;;;;;;4979912;28;92580;-65
2023/01/07 14:53:09;;;;;;;3.00;1.02;;;;;;;;;;4980532;28;92686;-64
2023/01/07 14:56:14;;;;;;;2.47;1.20;;;;;;;;;;4995248;28;92453;-66
2023/01/07 14:58:47;;;;;;;3.20;1.20;;;;;;;;;;4938702;28;92463;-66
2023/01/07 15:01:14;;;;;;;;;;;;;;;;;;4937459;28;95340;-65
2023/01/07 15:03:44;;;;;;;1.95;0.90;;;;;;;;;;4963975;28;113738;-65
2023/01/07 15:06:20;;;;;;;4.18;1.00;;;;;;;;;;4980018;28;92766;-65
2023/01/07 15:17:05;;;;;;;2.75;1.20;;;;;;;;;;4980404;28;111343;-64
2023/01/07 15:19:35;;;;;;;3.25;1.00;;;;;;;;;;4989865;28;92848;-66